sensor_id;sensor_type;location;lat;lon;timestamp;P1;durP1;ratioP1;P2;durP2;ratioP2
317;SDS011;146;53.448;10.228;2022-11-15T00:01:32;31.30;;;21.20;;
317;SDS011;146;53.448;10.228;2022-11-15T00:03:59;27.73;;;22.03;;
317;SDS011;146;53.448;10.228;2022-11-15T00:06:26;29.37;;;20.90;;
317;SDS011;146;53.448;10.228;2022-11-15T00:08:53;27.43;;;21.00;;
317;SDS011;146;53.448;10.228;2022-11-15T00:11:20;30.87;;;22.70;;
317;SDS011;146;53.448;10.228;2022-11-15T00:13:48;28.00;;;21.70;;
317;SDS011;146;53.448;10.228;2022-11-15T00:16:15;26.77;;;20.50;;
317;SDS011;146;53.448;10.228;2022-11-15T00:18:42;35.83;;;21.67;;
317;SDS011;146;53.448;10.228;2022-11-15T00:21:10;29.13;;;20.67;;
317;SDS011;146;53.448;10.228;2022-11-15T00:23:38;30.03;;;21.90;;
317;SDS011;146;53.448;10.228;2022-11-15T00:26:05;28.07;;;22.27;;
317;SDS011;146;53.448;10.228;2022-11-15T00:28:34;29.27;;;22.77;;
317;SDS011;146;53.448;10.228;2022-11-15T00:31:03;27.70;;;21.43;;
317;SDS011;146;53.448;10.228;2022-11-15T00:33:31;30.37;;;21.87;;
317;SDS011;146;53.448;10.228;2022-11-15T00:36:00;25.70;;;20.10;;
317;SDS011;146;53.448;10.228;2022-11-15T00:38:32;32.03;;;23.40;;
317;SDS011;146;53.448;10.228;2022-11-15T00:41:00;28.40;;;21.27;;
317;SDS011;146;53.448;10.228;2022-11-15T00:43:28;31.60;;;21.87;;
317;SDS011;146;53.448;10.228;2022-11-15T00:45:55;30.73;;;22.90;;
317;SDS011;146;53.448;10.228;2022-11-15T00:48:23;31.30;;;22.23;;
317;SDS011;146;53.448;10.228;2022-11-15T00:50:53;31.73;;;22.00;;
317;SDS011;146;53.448;10.228;2022-11-15T00:53:35;30.53;;;22.43;;
317;SDS011;146;53.448;10.228;2022-11-15T00:56:35;29.10;;;22.80;;
317;SDS011;146;53.448;10.228;2022-11-15T00:59:08;28.33;;;21.07;;
317;SDS011;146;53.448;10.228;2022-11-15T01:01:35;25.67;;;20.30;;
317;SDS011;146;53.448;10.228;2022-11-15T01:04:03;25.53;;;20.27;;
317;SDS011;146;53.448;10.228;2022-11-15T01:06:30;26.33;;;19.73;;
317;SDS011;146;53.448;10.228;2022-11-15T01:08:57;26.00;;;19.77;;
317;SDS011;146;53.448;10.228;2022-11-15T01:11:24;25.53;;;19.60;;
317;SDS011;146;53.448;10.228;2022-11-15T01:13:51;23.93;;;19.00;;
317;SDS011;146;53.448;10.228;2022-11-15T01:16:18;25.00;;;20.13;;
317;SDS011;146;53.448;10.228;2022-11-15T01:18:45;25.50;;;20.53;;
317;SDS011;146;53.448;10.228;2022-11-15T01:21:14;23.50;;;18.57;;
317;SDS011;146;53.448;10.228;2022-11-15T01:23:42;27.03;;;20.30;;
317;SDS011;146;53.448;10.228;2022-11-15T01:26:10;27.37;;;20.50;;
317;SDS011;146;53.448;10.228;2022-11-15T01:28:39;24.47;;;20.50;;
317;SDS011;146;53.448;10.228;2022-11-15T01:31:09;24.83;;;19.10;;
317;SDS011;146;53.448;10.228;2022-11-15T01:33:39;25.13;;;19.50;;
317;SDS011;146;53.448;10.228;2022-11-15T01:36:07;30.60;;;21.57;;
317;SDS011;146;53.448;10.228;2022-11-15T01:38:37;26.93;;;20.07;;
317;SDS011;146;53.448;10.228;2022-11-15T01:41:04;25.43;;;19.23;;
317;SDS011;146;53.448;10.228;2022-11-15T01:43:32;25.03;;;20.60;;
317;SDS011;146;53.448;10.228;2022-11-15T01:46:01;24.30;;;19.17;;
317;SDS011;146;53.448;10.228;2022-11-15T01:48:32;22.17;;;18.63;;
317;SDS011;146;53.448;10.228;2022-11-15T01:51:00;25.87;;;20.80;;
317;SDS011;146;53.448;10.228;2022-11-15T01:53:31;24.63;;;18.67;;
317;SDS011;146;53.448;10.228;2022-11-15T01:56:02;25.47;;;19.43;;
317;SDS011;146;53.448;10.228;2022-11-15T01:58:32;25.93;;;19.30;;
317;SDS011;146;53.448;10.228;2022-11-15T02:01:01;27.60;;;18.97;;
317;SDS011;146;53.448;10.228;2022-11-15T02:03:30;22.67;;;20.27;;
317;SDS011;146;53.448;10.228;2022-11-15T02:06:03;22.60;;;18.50;;
317;SDS011;146;53.448;10.228;2022-11-15T02:08:31;22.60;;;18.50;;
317;SDS011;146;53.448;10.228;2022-11-15T02:10:58;24.30;;;18.60;;
317;SDS011;146;53.448;10.228;2022-11-15T02:13:26;23.13;;;18.87;;
317;SDS011;146;53.448;10.228;2022-11-15T02:15:56;24.40;;;18.30;;
317;SDS011;146;53.448;10.228;2022-11-15T02:18:31;22.00;;;18.17;;
317;SDS011;146;53.448;10.228;2022-11-15T02:21:04;25.60;;;18.37;;
317;SDS011;146;53.448;10.228;2022-11-15T02:26:51;26.90;;;19.10;;
317;SDS011;146;53.448;10.228;2022-11-15T02:29:40;26.07;;;20.93;;
317;SDS011;146;53.448;10.228;2022-11-15T02:32:30;22.83;;;17.70;;
317;SDS011;146;53.448;10.228;2022-11-15T02:35:07;25.50;;;19.23;;
317;SDS011;146;53.448;10.228;2022-11-15T02:37:42;26.87;;;21.27;;
317;SDS011;146;53.448;10.228;2022-11-15T02:40:16;25.93;;;20.10;;
317;SDS011;146;53.448;10.228;2022-11-15T02:42:50;23.20;;;18.90;;
317;SDS011;146;53.448;10.228;2022-11-15T02:45:39;32.07;;;20.53;;
317;SDS011;146;53.448;10.228;2022-11-15T02:48:12;25.50;;;19.77;;
317;SDS011;146;53.448;10.228;2022-11-15T02:50:40;27.00;;;19.07;;
317;SDS011;146;53.448;10.228;2022-11-15T02:53:07;26.40;;;20.97;;
317;SDS011;146;53.448;10.228;2022-11-15T02:55:34;24.57;;;18.83;;
317;SDS011;146;53.448;10.228;2022-11-15T02:58:09;22.03;;;16.83;;
317;SDS011;146;53.448;10.228;2022-11-15T03:00:58;24.93;;;19.73;;
317;SDS011;146;53.448;10.228;2022-11-15T03:03:37;26.87;;;19.70;;
317;SDS011;146;53.448;10.228;2022-11-15T03:06:20;26.90;;;19.40;;
317;SDS011;146;53.448;10.228;2022-11-15T03:08:57;23.20;;;17.87;;
317;SDS011;146;53.448;10.228;2022-11-15T03:11:30;23.40;;;18.03;;
317;SDS011;146;53.448;10.228;2022-11-15T03:14:01;21.03;;;17.57;;
317;SDS011;146;53.448;10.228;2022-11-15T03:16:34;23.27;;;17.20;;
317;SDS011;146;53.448;10.228;2022-11-15T03:19:07;20.83;;;16.50;;
317;SDS011;146;53.448;10.228;2022-11-15T03:21:39;21.63;;;16.83;;
317;SDS011;146;53.448;10.228;2022-11-15T03:24:07;21.27;;;16.97;;
317;SDS011;146;53.448;10.228;2022-11-15T03:26:36;19.63;;;16.73;;
317;SDS011;146;53.448;10.228;2022-11-15T03:29:08;23.07;;;17.63;;
317;SDS011;146;53.448;10.228;2022-11-15T03:31:45;21.87;;;17.13;;
317;SDS011;146;53.448;10.228;2022-11-15T03:34:23;22.00;;;18.00;;
317;SDS011;146;53.448;10.228;2022-11-15T03:37:01;20.17;;;16.97;;
317;SDS011;146;53.448;10.228;2022-11-15T03:39:28;22.50;;;17.63;;
317;SDS011;146;53.448;10.228;2022-11-15T03:41:57;18.37;;;16.03;;
317;SDS011;146;53.448;10.228;2022-11-15T03:44:35;18.83;;;16.17;;
317;SDS011;146;53.448;10.228;2022-11-15T03:47:07;20.17;;;16.20;;
317;SDS011;146;53.448;10.228;2022-11-15T03:49:40;21.80;;;17.00;;
317;SDS011;146;53.448;10.228;2022-11-15T03:52:11;19.17;;;16.30;;
317;SDS011;146;53.448;10.228;2022-11-15T03:54:47;21.13;;;15.83;;
317;SDS011;146;53.448;10.228;2022-11-15T03:57:15;21.90;;;16.80;;
317;SDS011;146;53.448;10.228;2022-11-15T03:59:42;20.37;;;16.13;;
317;SDS011;146;53.448;10.228;2022-11-15T04:02:09;20.67;;;15.87;;
317;SDS011;146;53.448;10.228;2022-11-15T04:04:38;19.03;;;15.57;;
317;SDS011;146;53.448;10.228;2022-11-15T04:07:06;18.33;;;15.83;;
317;SDS011;146;53.448;10.228;2022-11-15T04:09:33;17.63;;;15.73;;
317;SDS011;146;53.448;10.228;2022-11-15T04:12:23;17.90;;;15.20;;
317;SDS011;146;53.448;10.228;2022-11-15T04:15:00;18.90;;;15.00;;
317;SDS011;146;53.448;10.228;2022-11-15T04:17:35;15.93;;;13.80;;
317;SDS011;146;53.448;10.228;2022-11-15T04:20:07;18.20;;;14.73;;
317;SDS011;146;53.448;10.228;2022-11-15T04:22:55;19.53;;;14.33;;
317;SDS011;146;53.448;10.228;2022-11-15T04:25:40;16.97;;;14.90;;
317;SDS011;146;53.448;10.228;2022-11-15T04:28:07;18.67;;;15.57;;
317;SDS011;146;53.448;10.228;2022-11-15T04:30:35;17.93;;;15.40;;
317;SDS011;146;53.448;10.228;2022-11-15T04:33:02;15.17;;;13.53;;
317;SDS011;146;53.448;10.228;2022-11-15T04:35:29;16.60;;;14.50;;
317;SDS011;146;53.448;10.228;2022-11-15T04:37:58;21.40;;;15.20;;
317;SDS011;146;53.448;10.228;2022-11-15T04:40:24;18.90;;;15.50;;
317;SDS011;146;53.448;10.228;2022-11-15T04:42:51;17.13;;;14.80;;
317;SDS011;146;53.448;10.228;2022-11-15T04:45:18;16.80;;;14.20;;
317;SDS011;146;53.448;10.228;2022-11-15T04:47:45;19.70;;;14.37;;
317;SDS011;146;53.448;10.228;2022-11-15T04:50:12;15.27;;;13.57;;
317;SDS011;146;53.448;10.228;2022-11-15T04:52:40;20.10;;;14.50;;
317;SDS011;146;53.448;10.228;2022-11-15T04:55:12;21.73;;;15.87;;
317;SDS011;146;53.448;10.228;2022-11-15T04:57:39;19.87;;;15.23;;
317;SDS011;146;53.448;10.228;2022-11-15T05:00:07;18.87;;;15.03;;
317;SDS011;146;53.448;10.228;2022-11-15T05:02:36;18.90;;;14.63;;
317;SDS011;146;53.448;10.228;2022-11-15T05:05:20;19.37;;;14.20;;
317;SDS011;146;53.448;10.228;2022-11-15T05:07:47;22.90;;;15.77;;
317;SDS011;146;53.448;10.228;2022-11-15T05:10:16;19.57;;;14.67;;
317;SDS011;146;53.448;10.228;2022-11-15T05:12:43;19.20;;;15.10;;
317;SDS011;146;53.448;10.228;2022-11-15T05:15:13;18.67;;;14.03;;
317;SDS011;146;53.448;10.228;2022-11-15T05:17:40;19.20;;;15.40;;
317;SDS011;146;53.448;10.228;2022-11-15T05:20:07;16.93;;;14.50;;
317;SDS011;146;53.448;10.228;2022-11-15T05:22:36;24.63;;;16.10;;
317;SDS011;146;53.448;10.228;2022-11-15T05:25:03;18.50;;;14.20;;
317;SDS011;146;53.448;10.228;2022-11-15T05:27:32;20.63;;;15.60;;
317;SDS011;146;53.448;10.228;2022-11-15T05:29:59;18.20;;;14.37;;
317;SDS011;146;53.448;10.228;2022-11-15T05:32:27;18.70;;;14.40;;
317;SDS011;146;53.448;10.228;2022-11-15T05:34:54;16.60;;;13.63;;
317;SDS011;146;53.448;10.228;2022-11-15T05:37:21;19.37;;;15.40;;
317;SDS011;146;53.448;10.228;2022-11-15T05:39:49;20.10;;;15.00;;
317;SDS011;146;53.448;10.228;2022-11-15T05:42:16;18.10;;;14.30;;
317;SDS011;146;53.448;10.228;2022-11-15T05:44:46;18.27;;;15.17;;
317;SDS011;146;53.448;10.228;2022-11-15T05:47:16;18.23;;;15.00;;
317;SDS011;146;53.448;10.228;2022-11-15T05:49:46;19.07;;;14.80;;
317;SDS011;146;53.448;10.228;2022-11-15T05:52:16;19.67;;;15.40;;
317;SDS011;146;53.448;10.228;2022-11-15T05:54:46;20.10;;;14.40;;
317;SDS011;146;53.448;10.228;2022-11-15T05:57:14;17.37;;;14.47;;
317;SDS011;146;53.448;10.228;2022-11-15T05:59:41;19.80;;;16.30;;
317;SDS011;146;53.448;10.228;2022-11-15T06:02:11;23.07;;;15.47;;
317;SDS011;146;53.448;10.228;2022-11-15T06:04:38;20.73;;;15.30;;
317;SDS011;146;53.448;10.228;2022-11-15T06:07:05;18.27;;;15.20;;
317;SDS011;146;53.448;10.228;2022-11-15T06:09:32;19.03;;;14.47;;
317;SDS011;146;53.448;10.228;2022-11-15T06:11:59;18.30;;;15.13;;
317;SDS011;146;53.448;10.228;2022-11-15T06:14:26;19.73;;;15.10;;
317;SDS011;146;53.448;10.228;2022-11-15T06:16:53;18.60;;;14.97;;
317;SDS011;146;53.448;10.228;2022-11-15T06:19:21;18.90;;;15.43;;
317;SDS011;146;53.448;10.228;2022-11-15T06:21:48;19.40;;;14.80;;
317;SDS011;146;53.448;10.228;2022-11-15T06:24:15;17.53;;;15.13;;
317;SDS011;146;53.448;10.228;2022-11-15T06:26:42;19.47;;;15.90;;
317;SDS011;146;53.448;10.228;2022-11-15T06:29:09;22.27;;;16.40;;
317;SDS011;146;53.448;10.228;2022-11-15T06:31:36;17.47;;;14.90;;
317;SDS011;146;53.448;10.228;2022-11-15T06:34:03;21.10;;;14.93;;
317;SDS011;146;53.448;10.228;2022-11-15T06:36:33;19.33;;;15.77;;
317;SDS011;146;53.448;10.228;2022-11-15T06:39:00;17.20;;;14.80;;
317;SDS011;146;53.448;10.228;2022-11-15T06:41:27;18.53;;;14.73;;
317;SDS011;146;53.448;10.228;2022-11-15T06:43:54;21.90;;;15.93;;
317;SDS011;146;53.448;10.228;2022-11-15T06:46:21;17.17;;;14.60;;
317;SDS011;146;53.448;10.228;2022-11-15T06:48:50;23.97;;;15.33;;
317;SDS011;146;53.448;10.228;2022-11-15T06:51:17;19.67;;;15.50;;
317;SDS011;146;53.448;10.228;2022-11-15T06:53:45;20.00;;;15.67;;
317;SDS011;146;53.448;10.228;2022-11-15T06:56:12;19.00;;;14.27;;
317;SDS011;146;53.448;10.228;2022-11-15T06:58:39;17.10;;;14.43;;
317;SDS011;146;53.448;10.228;2022-11-15T07:01:08;20.80;;;16.37;;
317;SDS011;146;53.448;10.228;2022-11-15T07:03:36;17.07;;;14.33;;
317;SDS011;146;53.448;10.228;2022-11-15T07:06:05;19.97;;;13.90;;
317;SDS011;146;53.448;10.228;2022-11-15T07:08:32;17.80;;;15.20;;
317;SDS011;146;53.448;10.228;2022-11-15T07:11:02;16.40;;;14.50;;
317;SDS011;146;53.448;10.228;2022-11-15T07:13:31;18.07;;;14.93;;
317;SDS011;146;53.448;10.228;2022-11-15T07:16:01;17.10;;;14.80;;
317;SDS011;146;53.448;10.228;2022-11-15T07:18:28;20.10;;;15.83;;
317;SDS011;146;53.448;10.228;2022-11-15T07:20:59;22.27;;;16.73;;
317;SDS011;146;53.448;10.228;2022-11-15T07:23:27;16.17;;;14.43;;
317;SDS011;146;53.448;10.228;2022-11-15T07:25:55;20.20;;;15.90;;
317;SDS011;146;53.448;10.228;2022-11-15T07:28:24;16.30;;;13.97;;
317;SDS011;146;53.448;10.228;2022-11-15T07:30:51;18.37;;;15.63;;
317;SDS011;146;53.448;10.228;2022-11-15T07:33:18;19.20;;;15.00;;
317;SDS011;146;53.448;10.228;2022-11-15T07:35:45;18.30;;;16.40;;
317;SDS011;146;53.448;10.228;2022-11-15T07:38:14;20.43;;;13.47;;
317;SDS011;146;53.448;10.228;2022-11-15T07:40:44;17.87;;;15.07;;
317;SDS011;146;53.448;10.228;2022-11-15T07:43:11;15.93;;;14.27;;
317;SDS011;146;53.448;10.228;2022-11-15T07:45:41;19.17;;;14.57;;
317;SDS011;146;53.448;10.228;2022-11-15T07:48:09;18.70;;;14.80;;
317;SDS011;146;53.448;10.228;2022-11-15T07:50:36;15.37;;;13.77;;
317;SDS011;146;53.448;10.228;2022-11-15T07:53:03;18.60;;;14.27;;
317;SDS011;146;53.448;10.228;2022-11-15T07:55:30;17.47;;;13.50;;
317;SDS011;146;53.448;10.228;2022-11-15T07:58:00;17.37;;;15.50;;
317;SDS011;146;53.448;10.228;2022-11-15T08:00:28;18.70;;;14.30;;
317;SDS011;146;53.448;10.228;2022-11-15T08:03:02;15.47;;;13.63;;
317;SDS011;146;53.448;10.228;2022-11-15T08:05:30;17.10;;;13.50;;
317;SDS011;146;53.448;10.228;2022-11-15T08:07:57;15.63;;;13.07;;
317;SDS011;146;53.448;10.228;2022-11-15T08:10:24;19.30;;;15.13;;
317;SDS011;146;53.448;10.228;2022-11-15T08:12:56;15.70;;;14.10;;
317;SDS011;146;53.448;10.228;2022-11-15T08:15:24;20.00;;;16.33;;
317;SDS011;146;53.448;10.228;2022-11-15T08:17:53;17.67;;;15.17;;
317;SDS011;146;53.448;10.228;2022-11-15T08:20:25;18.07;;;14.33;;
317;SDS011;146;53.448;10.228;2022-11-15T08:22:55;16.50;;;14.80;;
317;SDS011;146;53.448;10.228;2022-11-15T08:25:22;16.50;;;13.43;;
317;SDS011;146;53.448;10.228;2022-11-15T08:27:51;18.07;;;14.30;;
317;SDS011;146;53.448;10.228;2022-11-15T08:30:19;19.13;;;15.33;;
317;SDS011;146;53.448;10.228;2022-11-15T08:32:46;18.63;;;16.03;;
317;SDS011;146;53.448;10.228;2022-11-15T08:35:14;19.53;;;14.80;;
317;SDS011;146;53.448;10.228;2022-11-15T08:37:42;17.60;;;14.77;;
317;SDS011;146;53.448;10.228;2022-11-15T08:40:09;17.73;;;14.80;;
317;SDS011;146;53.448;10.228;2022-11-15T08:42:37;17.70;;;14.73;;
317;SDS011;146;53.448;10.228;2022-11-15T08:45:04;20.20;;;15.77;;
317;SDS011;146;53.448;10.228;2022-11-15T08:47:32;20.50;;;15.60;;
317;SDS011;146;53.448;10.228;2022-11-15T08:50:01;15.00;;;13.40;;
317;SDS011;146;53.448;10.228;2022-11-15T08:52:28;18.93;;;14.80;;
317;SDS011;146;53.448;10.228;2022-11-15T08:54:58;19.03;;;15.07;;
317;SDS011;146;53.448;10.228;2022-11-15T08:57:27;22.90;;;14.63;;
317;SDS011;146;53.448;10.228;2022-11-15T08:59:55;19.20;;;15.20;;
317;SDS011;146;53.448;10.228;2022-11-15T09:02:22;16.83;;;14.10;;
317;SDS011;146;53.448;10.228;2022-11-15T09:04:50;17.50;;;13.67;;
317;SDS011;146;53.448;10.228;2022-11-15T09:07:17;14.77;;;13.20;;
317;SDS011;146;53.448;10.228;2022-11-15T09:09:44;19.10;;;15.20;;
317;SDS011;146;53.448;10.228;2022-11-15T09:12:13;19.07;;;15.10;;
317;SDS011;146;53.448;10.228;2022-11-15T09:14:40;15.53;;;13.37;;
317;SDS011;146;53.448;10.228;2022-11-15T09:17:07;15.00;;;13.40;;
317;SDS011;146;53.448;10.228;2022-11-15T09:19:37;18.40;;;15.40;;
317;SDS011;146;53.448;10.228;2022-11-15T09:22:06;17.03;;;14.60;;
317;SDS011;146;53.448;10.228;2022-11-15T09:24:34;17.10;;;14.57;;
317;SDS011;146;53.448;10.228;2022-11-15T09:27:01;13.80;;;12.40;;
317;SDS011;146;53.448;10.228;2022-11-15T09:29:29;18.93;;;14.73;;
317;SDS011;146;53.448;10.228;2022-11-15T09:31:56;15.47;;;13.30;;
317;SDS011;146;53.448;10.228;2022-11-15T09:34:23;17.47;;;13.97;;
317;SDS011;146;53.448;10.228;2022-11-15T09:36:51;18.53;;;14.80;;
317;SDS011;146;53.448;10.228;2022-11-15T09:39:18;16.63;;;14.40;;
317;SDS011;146;53.448;10.228;2022-11-15T09:41:52;16.67;;;14.13;;
317;SDS011;146;53.448;10.228;2022-11-15T09:44:55;15.87;;;13.93;;
317;SDS011;146;53.448;10.228;2022-11-15T09:50:27;17.03;;;14.20;;
317;SDS011;146;53.448;10.228;2022-11-15T09:52:58;14.33;;;12.40;;
317;SDS011;146;53.448;10.228;2022-11-15T09:55:27;14.00;;;12.30;;
317;SDS011;146;53.448;10.228;2022-11-15T09:58:15;14.53;;;12.50;;
317;SDS011;146;53.448;10.228;2022-11-15T10:00:54;17.37;;;13.03;;
317;SDS011;146;53.448;10.228;2022-11-15T10:03:30;16.27;;;12.93;;
317;SDS011;146;53.448;10.228;2022-11-15T10:06:06;15.10;;;13.23;;
317;SDS011;146;53.448;10.228;2022-11-15T10:08:42;13.80;;;12.20;;
317;SDS011;146;53.448;10.228;2022-11-15T10:11:17;15.03;;;13.10;;
317;SDS011;146;53.448;10.228;2022-11-15T10:13:46;15.30;;;13.40;;
317;SDS011;146;53.448;10.228;2022-11-15T10:16:21;14.00;;;12.60;;
317;SDS011;146;53.448;10.228;2022-11-15T10:19:12;13.53;;;12.10;;
317;SDS011;146;53.448;10.228;2022-11-15T10:21:49;14.00;;;12.50;;
317;SDS011;146;53.448;10.228;2022-11-15T10:24:27;12.87;;;11.47;;
317;SDS011;146;53.448;10.228;2022-11-15T10:26:58;14.13;;;12.63;;
317;SDS011;146;53.448;10.228;2022-11-15T10:29:36;13.37;;;11.80;;
317;SDS011;146;53.448;10.228;2022-11-15T10:32:11;14.60;;;13.03;;
317;SDS011;146;53.448;10.228;2022-11-15T10:34:39;14.37;;;12.97;;
317;SDS011;146;53.448;10.228;2022-11-15T10:37:06;13.03;;;11.73;;
317;SDS011;146;53.448;10.228;2022-11-15T10:39:38;14.03;;;12.53;;
317;SDS011;146;53.448;10.228;2022-11-15T10:42:15;14.40;;;11.40;;
317;SDS011;146;53.448;10.228;2022-11-15T10:44:44;13.33;;;11.90;;
317;SDS011;146;53.448;10.228;2022-11-15T10:52:56;12.10;;;10.80;;
317;SDS011;146;53.448;10.228;2022-11-15T10:55:26;13.30;;;12.00;;
317;SDS011;146;53.448;10.228;2022-11-15T10:57:55;13.10;;;11.80;;
317;SDS011;146;53.448;10.228;2022-11-15T11:00:32;11.83;;;10.40;;
317;SDS011;146;53.448;10.228;2022-11-15T11:03:04;14.83;;;11.70;;
317;SDS011;146;53.448;10.228;2022-11-15T11:05:50;13.67;;;12.00;;
317;SDS011;146;53.448;10.228;2022-11-15T11:08:30;13.30;;;11.50;;
317;SDS011;146;53.448;10.228;2022-11-15T11:11:01;15.10;;;13.00;;
317;SDS011;146;53.448;10.228;2022-11-15T11:13:29;14.50;;;12.13;;
317;SDS011;146;53.448;10.228;2022-11-15T11:15:59;13.10;;;10.60;;
317;SDS011;146;53.448;10.228;2022-11-15T11:18:45;13.30;;;10.60;;
317;SDS011;146;53.448;10.228;2022-11-15T11:21:18;11.87;;;10.77;;
317;SDS011;146;53.448;10.228;2022-11-15T11:23:53;11.47;;;10.30;;
317;SDS011;146;53.448;10.228;2022-11-15T11:26:31;12.60;;;11.30;;
317;SDS011;146;53.448;10.228;2022-11-15T11:29:11;12.73;;;11.43;;
317;SDS011;146;53.448;10.228;2022-11-15T11:31:49;11.97;;;10.73;;
317;SDS011;146;53.448;10.228;2022-11-15T11:34:29;11.90;;;10.50;;
317;SDS011;146;53.448;10.228;2022-11-15T11:37:10;11.73;;;10.43;;
317;SDS011;146;53.448;10.228;2022-11-15T11:39:45;12.60;;;10.03;;
317;SDS011;146;53.448;10.228;2022-11-15T11:42:23;11.00;;;9.80;;
317;SDS011;146;53.448;10.228;2022-11-15T11:44:57;12.47;;;10.87;;
317;SDS011;146;53.448;10.228;2022-11-15T11:47:32;12.30;;;10.20;;
317;SDS011;146;53.448;10.228;2022-11-15T11:50:10;10.87;;;9.50;;
317;SDS011;146;53.448;10.228;2022-11-15T11:52:41;11.07;;;10.00;;
317;SDS011;146;53.448;10.228;2022-11-15T11:55:16;10.70;;;9.70;;
317;SDS011;146;53.448;10.228;2022-11-15T11:57:50;11.33;;;9.90;;
317;SDS011;146;53.448;10.228;2022-11-15T12:00:27;10.90;;;9.80;;
317;SDS011;146;53.448;10.228;2022-11-15T12:03:02;10.93;;;9.97;;
317;SDS011;146;53.448;10.228;2022-11-15T12:05:36;11.90;;;10.10;;
317;SDS011;146;53.448;10.228;2022-11-15T12:08:14;10.20;;;9.10;;
317;SDS011;146;53.448;10.228;2022-11-15T12:10:50;13.10;;;9.90;;
317;SDS011;146;53.448;10.228;2022-11-15T12:13:24;12.50;;;11.20;;
317;SDS011;146;53.448;10.228;2022-11-15T12:16:04;11.00;;;9.60;;
317;SDS011;146;53.448;10.228;2022-11-15T12:18:36;11.30;;;10.10;;
317;SDS011;146;53.448;10.228;2022-11-15T12:21:06;9.80;;;8.80;;
317;SDS011;146;53.448;10.228;2022-11-15T12:23:42;11.80;;;10.70;;
317;SDS011;146;53.448;10.228;2022-11-15T12:26:16;11.73;;;10.53;;
317;SDS011;146;53.448;10.228;2022-11-15T12:28:45;9.60;;;8.70;;
317;SDS011;146;53.448;10.228;2022-11-15T12:31:15;11.07;;;9.97;;
317;SDS011;146;53.448;10.228;2022-11-15T12:33:47;11.47;;;10.30;;
317;SDS011;146;53.448;10.228;2022-11-15T12:36:32;11.37;;;10.27;;
317;SDS011;146;53.448;10.228;2022-11-15T12:39:04;11.07;;;9.90;;
317;SDS011;146;53.448;10.228;2022-11-15T12:41:32;10.60;;;9.47;;
317;SDS011;146;53.448;10.228;2022-11-15T12:44:00;11.23;;;9.90;;
317;SDS011;146;53.448;10.228;2022-11-15T12:49:46;11.27;;;10.17;;
317;SDS011;146;53.448;10.228;2022-11-15T12:52:15;9.60;;;8.70;;
317;SDS011;146;53.448;10.228;2022-11-15T13:00:54;17.10;;;11.40;;
317;SDS011;146;53.448;10.228;2022-11-15T13:03:28;12.47;;;10.00;;
317;SDS011;146;53.448;10.228;2022-11-15T13:06:01;11.80;;;10.60;;
317;SDS011;146;53.448;10.228;2022-11-15T13:08:48;11.37;;;10.20;;
317;SDS011;146;53.448;10.228;2022-11-15T13:17:29;11.27;;;10.10;;
317;SDS011;146;53.448;10.228;2022-11-15T13:22:49;11.00;;;9.80;;
317;SDS011;146;53.448;10.228;2022-11-15T13:28:29;11.20;;;9.90;;
317;SDS011;146;53.448;10.228;2022-11-15T13:30:59;9.80;;;8.60;;
317;SDS011;146;53.448;10.228;2022-11-15T13:33:29;10.13;;;9.20;;
317;SDS011;146;53.448;10.228;2022-11-15T13:35:58;10.87;;;9.77;;
317;SDS011;146;53.448;10.228;2022-11-15T13:38:28;12.33;;;10.23;;
317;SDS011;146;53.448;10.228;2022-11-15T13:40:56;9.97;;;8.97;;
317;SDS011;146;53.448;10.228;2022-11-15T13:43:31;9.40;;;8.50;;
317;SDS011;146;53.448;10.228;2022-11-15T13:46:10;10.47;;;9.23;;
317;SDS011;146;53.448;10.228;2022-11-15T13:48:39;9.80;;;8.80;;
317;SDS011;146;53.448;10.228;2022-11-15T13:51:09;11.53;;;9.60;;
317;SDS011;146;53.448;10.228;2022-11-15T13:53:44;10.90;;;9.87;;
317;SDS011;146;53.448;10.228;2022-11-15T13:56:14;9.77;;;8.87;;
317;SDS011;146;53.448;10.228;2022-11-15T13:58:46;9.63;;;8.20;;
317;SDS011;146;53.448;10.228;2022-11-15T14:01:28;11.70;;;10.60;;
317;SDS011;146;53.448;10.228;2022-11-15T14:03:59;11.67;;;10.47;;
317;SDS011;146;53.448;10.228;2022-11-15T14:06:27;11.83;;;10.83;;
317;SDS011;146;53.448;10.228;2022-11-15T14:09:04;14.30;;;11.33;;
317;SDS011;146;53.448;10.228;2022-11-15T14:11:51;12.20;;;11.00;;
317;SDS011;146;53.448;10.228;2022-11-15T14:14:22;11.30;;;10.27;;
317;SDS011;146;53.448;10.228;2022-11-15T14:16:50;12.97;;;11.07;;
317;SDS011;146;53.448;10.228;2022-11-15T14:19:38;10.60;;;9.70;;
317;SDS011;146;53.448;10.228;2022-11-15T14:22:13;11.23;;;10.13;;
317;SDS011;146;53.448;10.228;2022-11-15T14:24:42;11.00;;;9.50;;
317;SDS011;146;53.448;10.228;2022-11-15T14:27:30;11.50;;;10.30;;
317;SDS011;146;53.448;10.228;2022-11-15T14:29:59;10.90;;;9.80;;
317;SDS011;146;53.448;10.228;2022-11-15T14:32:27;10.90;;;9.30;;
317;SDS011;146;53.448;10.228;2022-11-15T14:34:58;9.90;;;8.90;;
317;SDS011;146;53.448;10.228;2022-11-15T14:37:27;10.43;;;9.33;;
317;SDS011;146;53.448;10.228;2022-11-15T14:40:14;10.63;;;9.40;;
317;SDS011;146;53.448;10.228;2022-11-15T14:42:42;10.97;;;9.83;;
317;SDS011;146;53.448;10.228;2022-11-15T14:45:13;10.37;;;9.27;;
317;SDS011;146;53.448;10.228;2022-11-15T14:47:44;10.07;;;9.07;;
317;SDS011;146;53.448;10.228;2022-11-15T14:50:11;10.40;;;9.30;;
317;SDS011;146;53.448;10.228;2022-11-15T14:52:39;11.97;;;10.70;;
317;SDS011;146;53.448;10.228;2022-11-15T14:55:12;11.47;;;10.27;;
317;SDS011;146;53.448;10.228;2022-11-15T14:57:44;10.83;;;9.77;;
317;SDS011;146;53.448;10.228;2022-11-15T15:00:15;10.63;;;9.53;;
317;SDS011;146;53.448;10.228;2022-11-15T15:02:50;10.70;;;9.10;;
317;SDS011;146;53.448;10.228;2022-11-15T15:05:23;10.70;;;8.57;;
317;SDS011;146;53.448;10.228;2022-11-15T15:07:51;11.20;;;9.70;;
317;SDS011;146;53.448;10.228;2022-11-15T15:10:21;9.80;;;8.90;;
317;SDS011;146;53.448;10.228;2022-11-15T15:12:49;8.70;;;7.90;;
317;SDS011;146;53.448;10.228;2022-11-15T15:15:24;10.03;;;9.03;;
317;SDS011;146;53.448;10.228;2022-11-15T15:17:52;10.30;;;8.10;;
317;SDS011;146;53.448;10.228;2022-11-15T15:20:19;9.83;;;8.93;;
317;SDS011;146;53.448;10.228;2022-11-15T15:22:46;9.83;;;8.83;;
317;SDS011;146;53.448;10.228;2022-11-15T15:25:18;11.40;;;10.30;;
317;SDS011;146;53.448;10.228;2022-11-15T15:27:47;11.50;;;9.53;;
317;SDS011;146;53.448;10.228;2022-11-15T15:30:15;10.07;;;9.17;;
317;SDS011;146;53.448;10.228;2022-11-15T15:32:44;9.93;;;8.93;;
317;SDS011;146;53.448;10.228;2022-11-15T15:35:11;10.77;;;9.67;;
317;SDS011;146;53.448;10.228;2022-11-15T15:37:39;9.73;;;8.80;;
317;SDS011;146;53.448;10.228;2022-11-15T15:40:10;10.87;;;9.40;;
317;SDS011;146;53.448;10.228;2022-11-15T15:42:41;10.23;;;9.17;;
317;SDS011;146;53.448;10.228;2022-11-15T15:45:08;11.13;;;10.03;;
317;SDS011;146;53.448;10.228;2022-11-15T15:47:36;9.37;;;8.47;;
317;SDS011;146;53.448;10.228;2022-11-15T15:50:08;10.40;;;9.30;;
317;SDS011;146;53.448;10.228;2022-11-15T15:52:43;8.93;;;8.00;;
317;SDS011;146;53.448;10.228;2022-11-15T15:55:10;10.13;;;9.13;;
317;SDS011;146;53.448;10.228;2022-11-15T15:57:37;9.50;;;8.23;;
317;SDS011;146;53.448;10.228;2022-11-15T16:00:04;9.23;;;8.30;;
317;SDS011;146;53.448;10.228;2022-11-15T16:02:32;9.67;;;8.67;;